sensor_id;sensor_type;location;lat;lon;timestamp;P1;durP1;ratioP1;P2;durP2;ratioP2
8102;SDS011;4094;49.948;11.574;2023-08-30T00:01:15;4.77;;;4.40;;
8102;SDS011;4094;49.948;11.574;2023-08-30T00:03:44;5.03;;;4.27;;
8102;SDS011;4094;49.948;11.574;2023-08-30T00:06:14;4.60;;;4.20;;
8102;SDS011;4094;49.948;11.574;2023-08-30T00:08:45;4.20;;;4.00;;
8102;SDS011;4094;49.948;11.574;2023-08-30T00:11:14;4.53;;;4.23;;
8102;SDS011;4094;49.948;11.574;2023-08-30T00:13:43;5.07;;;4.50;;
8102;SDS011;4094;49.948;11.574;2023-08-30T00:16:12;5.00;;;4.60;;
8102;SDS011;4094;49.948;11.574;2023-08-30T00:18:44;4.97;;;4.60;;
8102;SDS011;4094;49.948;11.574;2023-08-30T00:21:13;4.77;;;4.37;;
8102;SDS011;4094;49.948;11.574;2023-08-30T00:23:45;4.70;;;4.40;;
8102;SDS011;4094;49.948;11.574;2023-08-30T00:26:14;5.10;;;4.60;;
8102;SDS011;4094;49.948;11.574;2023-08-30T00:28:43;5.30;;;4.80;;
8102;SDS011;4094;49.948;11.574;2023-08-30T00:31:12;4.83;;;4.57;;
8102;SDS011;4094;49.948;11.574;2023-08-30T00:33:41;4.83;;;4.40;;
8102;SDS011;4094;49.948;11.574;2023-08-30T00:36:12;4.90;;;4.50;;
8102;SDS011;4094;49.948;11.574;2023-08-30T00:38:41;4.40;;;4.10;;
8102;SDS011;4094;49.948;11.574;2023-08-30T00:41:12;5.10;;;4.67;;
8102;SDS011;4094;49.948;11.574;2023-08-30T00:43:41;4.70;;;4.50;;
8102;SDS011;4094;49.948;11.574;2023-08-30T00:46:10;5.07;;;4.60;;
8102;SDS011;4094;49.948;11.574;2023-08-30T00:48:40;4.70;;;4.30;;
8102;SDS011;4094;49.948;11.574;2023-08-30T00:51:09;4.77;;;4.47;;
8102;SDS011;4094;49.948;11.574;2023-08-30T00:53:38;5.20;;;4.80;;
8102;SDS011;4094;49.948;11.574;2023-08-30T00:56:08;5.00;;;4.70;;
8102;SDS011;4094;49.948;11.574;2023-08-30T00:58:38;5.23;;;4.90;;
8102;SDS011;4094;49.948;11.574;2023-08-30T01:01:08;4.50;;;4.30;;
8102;SDS011;4094;49.948;11.574;2023-08-30T01:03:37;4.97;;;4.57;;
8102;SDS011;4094;49.948;11.574;2023-08-30T01:06:06;4.73;;;4.53;;
8102;SDS011;4094;49.948;11.574;2023-08-30T01:08:37;5.20;;;4.80;;
8102;SDS011;4094;49.948;11.574;2023-08-30T01:11:08;4.30;;;4.00;;
8102;SDS011;4094;49.948;11.574;2023-08-30T01:13:45;5.10;;;4.80;;
8102;SDS011;4094;49.948;11.574;2023-08-30T01:16:18;5.00;;;4.70;;
8102;SDS011;4094;49.948;11.574;2023-08-30T01:18:52;4.70;;;4.40;;
8102;SDS011;4094;49.948;11.574;2023-08-30T01:21:27;4.80;;;4.40;;
8102;SDS011;4094;49.948;11.574;2023-08-30T01:24:02;4.97;;;4.57;;
8102;SDS011;4094;49.948;11.574;2023-08-30T01:26:36;4.60;;;4.17;;
8102;SDS011;4094;49.948;11.574;2023-08-30T01:29:12;4.87;;;4.40;;
8102;SDS011;4094;49.948;11.574;2023-08-30T01:31:45;5.10;;;4.70;;
8102;SDS011;4094;49.948;11.574;2023-08-30T01:34:15;4.90;;;4.50;;
8102;SDS011;4094;49.948;11.574;2023-08-30T01:36:45;4.97;;;4.67;;
8102;SDS011;4094;49.948;11.574;2023-08-30T01:39:14;5.20;;;4.70;;
8102;SDS011;4094;49.948;11.574;2023-08-30T01:41:44;7.13;;;4.90;;
8102;SDS011;4094;49.948;11.574;2023-08-30T01:44:16;4.70;;;4.40;;
8102;SDS011;4094;49.948;11.574;2023-08-30T01:46:46;4.90;;;4.70;;
8102;SDS011;4094;49.948;11.574;2023-08-30T01:49:16;5.00;;;4.80;;
8102;SDS011;4094;49.948;11.574;2023-08-30T01:51:46;4.70;;;4.40;;
8102;SDS011;4094;49.948;11.574;2023-08-30T01:54:17;4.97;;;4.60;;
8102;SDS011;4094;49.948;11.574;2023-08-30T01:56:47;5.00;;;4.70;;
8102;SDS011;4094;49.948;11.574;2023-08-30T01:59:18;4.97;;;4.50;;
8102;SDS011;4094;49.948;11.574;2023-08-30T02:01:47;4.97;;;4.67;;
8102;SDS011;4094;49.948;11.574;2023-08-30T02:04:16;4.53;;;4.33;;
8102;SDS011;4094;49.948;11.574;2023-08-30T02:06:47;4.60;;;4.30;;
8102;SDS011;4094;49.948;11.574;2023-08-30T02:09:24;4.60;;;4.40;;
8102;SDS011;4094;49.948;11.574;2023-08-30T02:11:57;4.90;;;4.50;;
8102;SDS011;4094;49.948;11.574;2023-08-30T02:14:33;4.90;;;4.60;;
8102;SDS011;4094;49.948;11.574;2023-08-30T02:17:05;6.10;;;5.07;;
8102;SDS011;4094;49.948;11.574;2023-08-30T02:19:35;4.87;;;4.53;;
8102;SDS011;4094;49.948;11.574;2023-08-30T02:22:04;5.00;;;4.60;;
8102;SDS011;4094;49.948;11.574;2023-08-30T02:24:33;5.10;;;4.70;;
8102;SDS011;4094;49.948;11.574;2023-08-30T02:27:02;4.93;;;4.60;;
8102;SDS011;4094;49.948;11.574;2023-08-30T02:29:34;5.60;;;4.80;;
8102;SDS011;4094;49.948;11.574;2023-08-30T02:32:05;5.00;;;4.70;;
8102;SDS011;4094;49.948;11.574;2023-08-30T02:34:34;4.90;;;4.50;;
8102;SDS011;4094;49.948;11.574;2023-08-30T02:37:04;5.30;;;4.90;;
8102;SDS011;4094;49.948;11.574;2023-08-30T02:39:33;5.03;;;4.73;;
8102;SDS011;4094;49.948;11.574;2023-08-30T02:42:02;5.10;;;4.80;;
8102;SDS011;4094;49.948;11.574;2023-08-30T02:44:31;4.67;;;4.30;;
8102;SDS011;4094;49.948;11.574;2023-08-30T02:47:03;5.57;;;5.17;;
8102;SDS011;4094;49.948;11.574;2023-08-30T02:49:33;7.43;;;4.97;;
8102;SDS011;4094;49.948;11.574;2023-08-30T02:52:02;7.07;;;4.60;;
8102;SDS011;4094;49.948;11.574;2023-08-30T02:54:31;4.90;;;4.33;;
8102;SDS011;4094;49.948;11.574;2023-08-30T02:57:00;4.77;;;4.57;;
8102;SDS011;4094;49.948;11.574;2023-08-30T02:59:30;5.40;;;4.90;;
8102;SDS011;4094;49.948;11.574;2023-08-30T03:02:05;5.07;;;4.73;;
8102;SDS011;4094;49.948;11.574;2023-08-30T03:04:34;5.33;;;4.97;;
8102;SDS011;4094;49.948;11.574;2023-08-30T03:07:06;5.80;;;4.77;;
8102;SDS011;4094;49.948;11.574;2023-08-30T03:09:34;4.60;;;4.30;;
8102;SDS011;4094;49.948;11.574;2023-08-30T03:12:06;5.13;;;4.80;;
8102;SDS011;4094;49.948;11.574;2023-08-30T03:14:35;4.77;;;4.47;;
8102;SDS011;4094;49.948;11.574;2023-08-30T03:17:06;6.10;;;4.90;;
8102;SDS011;4094;49.948;11.574;2023-08-30T03:19:37;5.07;;;4.73;;
8102;SDS011;4094;49.948;11.574;2023-08-30T03:22:06;5.10;;;4.80;;
8102;SDS011;4094;49.948;11.574;2023-08-30T03:24:35;4.93;;;4.60;;
8102;SDS011;4094;49.948;11.574;2023-08-30T03:27:04;5.23;;;4.67;;
8102;SDS011;4094;49.948;11.574;2023-08-30T03:29:33;5.13;;;4.73;;
8102;SDS011;4094;49.948;11.574;2023-08-30T03:32:02;5.07;;;4.77;;
8102;SDS011;4094;49.948;11.574;2023-08-30T03:34:34;4.83;;;4.53;;
8102;SDS011;4094;49.948;11.574;2023-08-30T03:37:04;4.93;;;4.63;;
8102;SDS011;4094;49.948;11.574;2023-08-30T03:39:33;5.00;;;4.70;;
8102;SDS011;4094;49.948;11.574;2023-08-30T03:42:04;6.07;;;4.47;;
8102;SDS011;4094;49.948;11.574;2023-08-30T03:44:33;4.57;;;4.37;;
8102;SDS011;4094;49.948;11.574;2023-08-30T03:47:06;5.23;;;4.83;;
8102;SDS011;4094;49.948;11.574;2023-08-30T03:49:37;5.50;;;5.10;;
8102;SDS011;4094;49.948;11.574;2023-08-30T03:52:06;5.00;;;4.57;;
8102;SDS011;4094;49.948;11.574;2023-08-30T03:54:36;5.30;;;4.90;;
8102;SDS011;4094;49.948;11.574;2023-08-30T03:57:04;5.17;;;4.87;;
8102;SDS011;4094;49.948;11.574;2023-08-30T03:59:34;5.40;;;5.10;;
8102;SDS011;4094;49.948;11.574;2023-08-30T04:02:03;6.43;;;5.37;;
8102;SDS011;4094;49.948;11.574;2023-08-30T04:04:32;4.87;;;4.67;;
8102;SDS011;4094;49.948;11.574;2023-08-30T04:07:03;5.10;;;4.80;;
8102;SDS011;4094;49.948;11.574;2023-08-30T04:09:33;4.97;;;4.67;;
8102;SDS011;4094;49.948;11.574;2023-08-30T04:12:03;5.97;;;4.80;;
8102;SDS011;4094;49.948;11.574;2023-08-30T04:14:33;4.97;;;4.50;;
8102;SDS011;4094;49.948;11.574;2023-08-30T04:17:02;5.43;;;5.03;;
8102;SDS011;4094;49.948;11.574;2023-08-30T04:19:34;5.30;;;4.90;;
8102;SDS011;4094;49.948;11.574;2023-08-30T04:22:04;5.27;;;4.87;;
8102;SDS011;4094;49.948;11.574;2023-08-30T04:24:33;5.67;;;5.10;;
8102;SDS011;4094;49.948;11.574;2023-08-30T04:27:02;5.23;;;4.93;;
8102;SDS011;4094;49.948;11.574;2023-08-30T04:29:33;5.20;;;4.90;;
8102;SDS011;4094;49.948;11.574;2023-08-30T04:32:02;4.93;;;4.57;;
8102;SDS011;4094;49.948;11.574;2023-08-30T04:34:32;5.03;;;4.73;;
8102;SDS011;4094;49.948;11.574;2023-08-30T04:37:02;5.70;;;5.20;;
8102;SDS011;4094;49.948;11.574;2023-08-30T04:39:33;5.23;;;4.93;;
8102;SDS011;4094;49.948;11.574;2023-08-30T04:42:02;6.17;;;5.77;;
8102;SDS011;4094;49.948;11.574;2023-08-30T04:44:31;5.87;;;5.47;;
8102;SDS011;4094;49.948;11.574;2023-08-30T04:47:00;6.13;;;5.63;;
8102;SDS011;4094;49.948;11.574;2023-08-30T04:49:31;6.27;;;5.87;;
8102;SDS011;4094;49.948;11.574;2023-08-30T04:52:01;6.03;;;5.57;;
8102;SDS011;4094;49.948;11.574;2023-08-30T04:54:33;5.30;;;4.83;;
8102;SDS011;4094;49.948;11.574;2023-08-30T04:57:02;5.23;;;4.93;;
8102;SDS011;4094;49.948;11.574;2023-08-30T04:59:33;4.70;;;4.30;;
8102;SDS011;4094;49.948;11.574;2023-08-30T05:02:02;5.00;;;4.80;;
8102;SDS011;4094;49.948;11.574;2023-08-30T05:04:35;4.97;;;4.77;;
8102;SDS011;4094;49.948;11.574;2023-08-30T05:07:04;5.30;;;4.90;;
8102;SDS011;4094;49.948;11.574;2023-08-30T05:09:35;5.53;;;5.13;;
8102;SDS011;4094;49.948;11.574;2023-08-30T05:12:04;5.30;;;5.00;;
8102;SDS011;4094;49.948;11.574;2023-08-30T05:14:34;4.97;;;4.73;;
8102;SDS011;4094;49.948;11.574;2023-08-30T05:17:03;5.27;;;4.87;;
8102;SDS011;4094;49.948;11.574;2023-08-30T05:19:33;5.47;;;5.03;;
8102;SDS011;4094;49.948;11.574;2023-08-30T05:22:04;4.83;;;4.60;;
8102;SDS011;4094;49.948;11.574;2023-08-30T05:24:33;5.70;;;5.20;;
8102;SDS011;4094;49.948;11.574;2023-08-30T05:27:04;5.73;;;5.27;;
8102;SDS011;4094;49.948;11.574;2023-08-30T05:29:39;5.83;;;5.33;;
8102;SDS011;4094;49.948;11.574;2023-08-30T05:32:09;5.97;;;5.47;;
8102;SDS011;4094;49.948;11.574;2023-08-30T05:34:41;6.20;;;5.80;;
8102;SDS011;4094;49.948;11.574;2023-08-30T05:37:23;6.20;;;5.70;;
8102;SDS011;4094;49.948;11.574;2023-08-30T05:40:13;5.80;;;5.50;;
8102;SDS011;4094;49.948;11.574;2023-08-30T05:42:44;5.80;;;5.50;;
8102;SDS011;4094;49.948;11.574;2023-08-30T05:45:14;6.37;;;5.87;;
8102;SDS011;4094;49.948;11.574;2023-08-30T05:47:43;5.67;;;5.37;;
8102;SDS011;4094;49.948;11.574;2023-08-30T05:50:13;5.90;;;5.30;;
8102;SDS011;4094;49.948;11.574;2023-08-30T05:52:42;5.87;;;5.27;;
8102;SDS011;4094;49.948;11.574;2023-08-30T05:55:13;4.80;;;4.50;;
8102;SDS011;4094;49.948;11.574;2023-08-30T05:57:43;6.17;;;5.57;;
8102;SDS011;4094;49.948;11.574;2023-08-30T06:00:12;5.63;;;5.23;;
8102;SDS011;4094;49.948;11.574;2023-08-30T06:02:42;5.90;;;5.50;;
8102;SDS011;4094;49.948;11.574;2023-08-30T06:05:12;5.33;;;5.03;;
8102;SDS011;4094;49.948;11.574;2023-08-30T06:07:41;5.50;;;5.00;;
8102;SDS011;4094;49.948;11.574;2023-08-30T06:10:10;5.20;;;4.70;;
8102;SDS011;4094;49.948;11.574;2023-08-30T06:12:41;5.07;;;4.77;;
8102;SDS011;4094;49.948;11.574;2023-08-30T06:15:10;5.40;;;5.10;;
8102;SDS011;4094;49.948;11.574;2023-08-30T06:17:39;5.30;;;5.00;;
8102;SDS011;4094;49.948;11.574;2023-08-30T06:20:08;5.27;;;4.87;;
8102;SDS011;4094;49.948;11.574;2023-08-30T06:22:39;5.20;;;4.80;;
8102;SDS011;4094;49.948;11.574;2023-08-30T06:25:12;5.20;;;4.90;;
8102;SDS011;4094;49.948;11.574;2023-08-30T06:27:54;5.10;;;4.80;;
8102;SDS011;4094;49.948;11.574;2023-08-30T06:30:24;5.47;;;4.97;;
8102;SDS011;4094;49.948;11.574;2023-08-30T06:32:53;5.50;;;5.00;;
8102;SDS011;4094;49.948;11.574;2023-08-30T06:35:23;5.07;;;4.80;;
8102;SDS011;4094;49.948;11.574;2023-08-30T06:37:53;5.30;;;4.90;;
8102;SDS011;4094;49.948;11.574;2023-08-30T06:40:23;5.17;;;4.87;;
8102;SDS011;4094;49.948;11.574;2023-08-30T06:42:54;5.30;;;4.90;;
8102;SDS011;4094;49.948;11.574;2023-08-30T06:45:23;5.23;;;4.93;;
8102;SDS011;4094;49.948;11.574;2023-08-30T06:47:52;5.23;;;4.83;;
8102;SDS011;4094;49.948;11.574;2023-08-30T06:50:22;5.20;;;4.90;;
8102;SDS011;4094;49.948;11.574;2023-08-30T06:52:51;5.43;;;5.07;;
8102;SDS011;4094;49.948;11.574;2023-08-30T06:55:20;5.10;;;4.80;;
8102;SDS011;4094;49.948;11.574;2023-08-30T06:57:49;5.10;;;4.80;;
8102;SDS011;4094;49.948;11.574;2023-08-30T07:00:20;5.33;;;5.00;;
8102;SDS011;4094;49.948;11.574;2023-08-30T07:02:51;5.23;;;4.93;;
8102;SDS011;4094;49.948;11.574;2023-08-30T07:05:21;4.93;;;4.63;;
8102;SDS011;4094;49.948;11.574;2023-08-30T07:07:51;5.33;;;4.93;;
8102;SDS011;4094;49.948;11.574;2023-08-30T07:10:20;5.07;;;4.77;;
8102;SDS011;4094;49.948;11.574;2023-08-30T07:12:49;5.90;;;5.50;;
8102;SDS011;4094;49.948;11.574;2023-08-30T07:15:18;5.27;;;4.90;;
8102;SDS011;4094;49.948;11.574;2023-08-30T07:17:49;5.10;;;4.80;;
8102;SDS011;4094;49.948;11.574;2023-08-30T07:20:22;4.73;;;4.43;;
8102;SDS011;4094;49.948;11.574;2023-08-30T07:22:51;5.67;;;5.27;;
8102;SDS011;4094;49.948;11.574;2023-08-30T07:25:20;5.37;;;5.07;;
8102;SDS011;4094;49.948;11.574;2023-08-30T07:27:49;5.47;;;5.17;;
8102;SDS011;4094;49.948;11.574;2023-08-30T07:30:20;5.10;;;4.80;;
8102;SDS011;4094;49.948;11.574;2023-08-30T07:32:49;5.60;;;5.20;;
8102;SDS011;4094;49.948;11.574;2023-08-30T07:35:18;5.60;;;5.30;;
8102;SDS011;4094;49.948;11.574;2023-08-30T07:37:47;5.27;;;4.97;;
8102;SDS011;4094;49.948;11.574;2023-08-30T07:40:17;5.73;;;5.30;;
8102;SDS011;4094;49.948;11.574;2023-08-30T07:42:48;5.67;;;5.17;;
8102;SDS011;4094;49.948;11.574;2023-08-30T07:45:17;5.20;;;4.90;;
8102;SDS011;4094;49.948;11.574;2023-08-30T07:47:47;5.10;;;4.80;;
8102;SDS011;4094;49.948;11.574;2023-08-30T07:50:21;5.20;;;4.90;;
8102;SDS011;4094;49.948;11.574;2023-08-30T07:52:50;5.37;;;4.97;;
8102;SDS011;4094;49.948;11.574;2023-08-30T07:55:19;5.70;;;5.30;;
8102;SDS011;4094;49.948;11.574;2023-08-30T07:57:48;4.63;;;4.33;;
8102;SDS011;4094;49.948;11.574;2023-08-30T08:00:17;4.80;;;4.50;;
8102;SDS011;4094;49.948;11.574;2023-08-30T08:02:47;4.70;;;4.30;;
8102;SDS011;4094;49.948;11.574;2023-08-30T08:05:17;4.37;;;4.07;;
8102;SDS011;4094;49.948;11.574;2023-08-30T08:07:49;4.70;;;4.40;;
8102;SDS011;4094;49.948;11.574;2023-08-30T08:10:20;4.50;;;4.20;;
8102;SDS011;4094;49.948;11.574;2023-08-30T08:12:49;4.50;;;4.20;;
8102;SDS011;4094;49.948;11.574;2023-08-30T08:15:18;4.27;;;4.07;;
8102;SDS011;4094;49.948;11.574;2023-08-30T08:17:48;4.40;;;4.10;;
8102;SDS011;4094;49.948;11.574;2023-08-30T08:20:17;4.57;;;4.20;;
8102;SDS011;4094;49.948;11.574;2023-08-30T08:22:47;4.57;;;4.17;;
8102;SDS011;4094;49.948;11.574;2023-08-30T08:25:16;4.70;;;4.40;;
8102;SDS011;4094;49.948;11.574;2023-08-30T08:27:46;4.60;;;4.30;;
8102;SDS011;4094;49.948;11.574;2023-08-30T08:30:15;4.40;;;4.10;;
8102;SDS011;4094;49.948;11.574;2023-08-30T08:32:45;4.40;;;4.00;;
8102;SDS011;4094;49.948;11.574;2023-08-30T08:35:16;4.50;;;4.17;;
8102;SDS011;4094;49.948;11.574;2023-08-30T08:37:45;4.40;;;4.07;;
8102;SDS011;4094;49.948;11.574;2023-08-30T08:40:14;4.40;;;4.10;;
8102;SDS011;4094;49.948;11.574;2023-08-30T08:42:52;4.07;;;3.80;;
8102;SDS011;4094;49.948;11.574;2023-08-30T08:45:23;4.73;;;4.43;;
8102;SDS011;4094;49.948;11.574;2023-08-30T08:47:53;4.10;;;3.90;;
8102;SDS011;4094;49.948;11.574;2023-08-30T08:50:25;5.07;;;4.77;;
8102;SDS011;4094;49.948;11.574;2023-08-30T08:52:58;4.93;;;4.53;;
8102;SDS011;4094;49.948;11.574;2023-08-30T08:55:28;4.50;;;4.20;;
8102;SDS011;4094;49.948;11.574;2023-08-30T08:57:58;5.17;;;4.87;;
8102;SDS011;4094;49.948;11.574;2023-08-30T09:00:29;5.00;;;4.67;;
8102;SDS011;4094;49.948;11.574;2023-08-30T09:02:59;4.80;;;4.50;;
8102;SDS011;4094;49.948;11.574;2023-08-30T09:05:33;5.07;;;4.60;;
8102;SDS011;4094;49.948;11.574;2023-08-30T09:08:05;4.77;;;4.47;;
8102;SDS011;4094;49.948;11.574;2023-08-30T09:10:35;5.00;;;4.60;;
8102;SDS011;4094;49.948;11.574;2023-08-30T09:13:05;4.90;;;4.50;;
8102;SDS011;4094;49.948;11.574;2023-08-30T09:15:35;5.53;;;5.00;;
8102;SDS011;4094;49.948;11.574;2023-08-30T09:18:14;5.20;;;4.90;;
8102;SDS011;4094;49.948;11.574;2023-08-30T09:20:44;4.80;;;4.40;;
8102;SDS011;4094;49.948;11.574;2023-08-30T09:23:17;4.87;;;4.57;;
8102;SDS011;4094;49.948;11.574;2023-08-30T09:25:47;9.80;;;5.07;;
8102;SDS011;4094;49.948;11.574;2023-08-30T09:28:23;4.50;;;4.20;;
8102;SDS011;4094;49.948;11.574;2023-08-30T09:30:52;5.07;;;4.67;;
8102;SDS011;4094;49.948;11.574;2023-08-30T09:33:21;4.63;;;4.33;;
8102;SDS011;4094;49.948;11.574;2023-08-30T09:35:51;4.60;;;4.20;;
8102;SDS011;4094;49.948;11.574;2023-08-30T09:38:20;4.30;;;4.10;;
8102;SDS011;4094;49.948;11.574;2023-08-30T09:40:51;4.33;;;4.07;;
8102;SDS011;4094;49.948;11.574;2023-08-30T09:43:23;4.83;;;3.70;;
8102;SDS011;4094;49.948;11.574;2023-08-30T09:45:52;4.33;;;3.90;;
8102;SDS011;4094;49.948;11.574;2023-08-30T09:48:22;3.83;;;3.53;;
8102;SDS011;4094;49.948;11.574;2023-08-30T09:50:58;3.90;;;3.60;;
8102;SDS011;4094;49.948;11.574;2023-08-30T09:53:29;3.60;;;3.40;;
8102;SDS011;4094;49.948;11.574;2023-08-30T09:56:19;9.97;;;3.57;;
8102;SDS011;4094;49.948;11.574;2023-08-30T09:58:50;4.13;;;3.73;;
8102;SDS011;4094;49.948;11.574;2023-08-30T10:01:21;3.83;;;3.53;;
8102;SDS011;4094;49.948;11.574;2023-08-30T10:03:52;3.70;;;3.50;;
8102;SDS011;4094;49.948;11.574;2023-08-30T10:06:24;3.80;;;3.50;;
8102;SDS011;4094;49.948;11.574;2023-08-30T10:08:54;3.77;;;3.47;;
8102;SDS011;4094;49.948;11.574;2023-08-30T10:11:25;3.57;;;3.37;;
8102;SDS011;4094;49.948;11.574;2023-08-30T10:13:57;3.30;;;3.00;;
8102;SDS011;4094;49.948;11.574;2023-08-30T10:16:27;3.47;;;3.20;;
8102;SDS011;4094;49.948;11.574;2023-08-30T10:19:01;3.50;;;3.30;;
8102;SDS011;4094;49.948;11.574;2023-08-30T10:21:34;5.77;;;3.20;;
8102;SDS011;4094;49.948;11.574;2023-08-30T10:24:06;3.50;;;3.20;;
8102;SDS011;4094;49.948;11.574;2023-08-30T10:26:57;3.20;;;3.00;;
8102;SDS011;4094;49.948;11.574;2023-08-30T10:29:28;3.20;;;3.00;;
8102;SDS011;4094;49.948;11.574;2023-08-30T10:32:01;3.07;;;2.87;;
8102;SDS011;4094;49.948;11.574;2023-08-30T10:34:32;3.10;;;2.90;;
8102;SDS011;4094;49.948;11.574;2023-08-30T10:37:06;2.90;;;2.70;;
8102;SDS011;4094;49.948;11.574;2023-08-30T10:39:36;4.17;;;2.80;;
8102;SDS011;4094;49.948;11.574;2023-08-30T10:42:09;2.80;;;2.60;;
8102;SDS011;4094;49.948;11.574;2023-08-30T10:44:48;2.57;;;2.47;;
8102;SDS011;4094;49.948;11.574;2023-08-30T10:47:22;3.20;;;3.00;;
8102;SDS011;4094;49.948;11.574;2023-08-30T10:49:54;2.70;;;2.60;;
8102;SDS011;4094;49.948;11.574;2023-08-30T10:52:25;3.83;;;2.80;;
8102;SDS011;4094;49.948;11.574;2023-08-30T10:55:04;3.10;;;2.90;;
8102;SDS011;4094;49.948;11.574;2023-08-30T10:57:34;3.30;;;2.80;;
8102;SDS011;4094;49.948;11.574;2023-08-30T11:00:04;2.80;;;2.60;;
8102;SDS011;4094;49.948;11.574;2023-08-30T11:02:36;4.07;;;3.13;;
8102;SDS011;4094;49.948;11.574;2023-08-30T11:05:06;2.60;;;2.40;;
8102;SDS011;4094;49.948;11.574;2023-08-30T11:07:38;4.07;;;3.00;;
8102;SDS011;4094;49.948;11.574;2023-08-30T11:10:08;3.13;;;2.50;;
8102;SDS011;4094;49.948;11.574;2023-08-30T11:12:39;3.00;;;2.70;;
8102;SDS011;4094;49.948;11.574;2023-08-30T11:15:10;2.70;;;2.50;;
8102;SDS011;4094;49.948;11.574;2023-08-30T11:17:41;3.20;;;2.90;;
8102;SDS011;4094;49.948;11.574;2023-08-30T11:20:12;3.03;;;2.60;;
8102;SDS011;4094;49.948;11.574;2023-08-30T11:22:46;2.53;;;2.33;;
8102;SDS011;4094;49.948;11.574;2023-08-30T11:25:16;2.77;;;2.57;;
8102;SDS011;4094;49.948;11.574;2023-08-30T11:27:46;3.00;;;2.83;;
8102;SDS011;4094;49.948;11.574;2023-08-30T11:30:15;3.10;;;2.90;;
8102;SDS011;4094;49.948;11.574;2023-08-30T11:32:46;2.93;;;2.73;;
8102;SDS011;4094;49.948;11.574;2023-08-30T11:35:16;3.17;;;2.97;;
8102;SDS011;4094;49.948;11.574;2023-08-30T11:37:46;3.13;;;2.80;;
8102;SDS011;4094;49.948;11.574;2023-08-30T11:40:16;2.97;;;2.77;;
8102;SDS011;4094;49.948;11.574;2023-08-30T11:42:46;2.80;;;2.60;;
8102;SDS011;4094;49.948;11.574;2023-08-30T11:45:17;3.00;;;2.60;;
8102;SDS011;4094;49.948;11.574;2023-08-30T11:47:46;2.50;;;2.30;;
8102;SDS011;4094;49.948;11.574;2023-08-30T11:50:16;2.80;;;2.60;;
8102;SDS011;4094;49.948;11.574;2023-08-30T11:52:50;2.60;;;2.40;;
8102;SDS011;4094;49.948;11.574;2023-08-30T11:55:19;2.70;;;2.50;;
8102;SDS011;4094;49.948;11.574;2023-08-30T11:57:51;2.73;;;2.53;;
8102;SDS011;4094;49.948;11.574;2023-08-30T12:00:20;2.80;;;2.60;;
8102;SDS011;4094;49.948;11.574;2023-08-30T12:02:50;2.70;;;2.60;;
8102;SDS011;4094;49.948;11.574;2023-08-30T12:05:20;2.63;;;2.43;;
8102;SDS011;4094;49.948;11.574;2023-08-30T12:07:50;2.73;;;2.53;;
8102;SDS011;4094;49.948;11.574;2023-08-30T12:10:20;2.93;;;2.60;;
8102;SDS011;4094;49.948;11.574;2023-08-30T12:12:49;2.20;;;2.10;;
8102;SDS011;4094;49.948;11.574;2023-08-30T12:15:19;2.20;;;2.10;;
8102;SDS011;4094;49.948;11.574;2023-08-30T12:17:53;2.50;;;2.30;;
8102;SDS011;4094;49.948;11.574;2023-08-30T12:20:23;2.53;;;2.33;;
8102;SDS011;4094;49.948;11.574;2023-08-30T12:22:54;2.43;;;2.27;;
8102;SDS011;4094;49.948;11.574;2023-08-30T12:25:23;2.50;;;2.30;;
8102;SDS011;4094;49.948;11.574;2023-08-30T12:27:54;2.50;;;2.30;;
8102;SDS011;4094;49.948;11.574;2023-08-30T12:30:23;2.43;;;2.27;;
8102;SDS011;4094;49.948;11.574;2023-08-30T12:32:59;2.30;;;2.20;;
8102;SDS011;4094;49.948;11.574;2023-08-30T12:35:29;3.30;;;2.20;;
8102;SDS011;4094;49.948;11.574;2023-08-30T12:37:59;2.53;;;2.30;;
8102;SDS011;4094;49.948;11.574;2023-08-30T12:40:28;2.60;;;2.40;;
8102;SDS011;4094;49.948;11.574;2023-08-30T12:42:57;2.77;;;2.50;;
8102;SDS011;4094;49.948;11.574;2023-08-30T12:45:26;2.53;;;2.33;;
8102;SDS011;4094;49.948;11.574;2023-08-30T12:47:55;3.00;;;2.80;;
8102;SDS011;4094;49.948;11.574;2023-08-30T12:50:26;2.90;;;2.70;;
8102;SDS011;4094;49.948;11.574;2023-08-30T12:52:56;2.90;;;2.70;;
8102;SDS011;4094;49.948;11.574;2023-08-30T12:55:27;2.90;;;2.60;;
8102;SDS011;4094;49.948;11.574;2023-08-30T12:57:57;2.70;;;2.50;;
8102;SDS011;4094;49.948;11.574;2023-08-30T13:00:26;2.60;;;2.40;;
8102;SDS011;4094;49.948;11.574;2023-08-30T13:02:56;3.00;;;2.80;;
8102;SDS011;4094;49.948;11.574;2023-08-30T13:05:26;3.17;;;2.97;;
8102;SDS011;4094;49.948;11.574;2023-08-30T13:07:55;3.60;;;3.30;;
8102;SDS011;4094;49.948;11.574;2023-08-30T13:10:24;3.40;;;3.10;;
8102;SDS011;4094;49.948;11.574;2023-08-30T13:12:55;3.70;;;3.40;;
8102;SDS011;4094;49.948;11.574;2023-08-30T13:15:24;3.90;;;3.63;;
8102;SDS011;4094;49.948;11.574;2023-08-30T13:17:53;3.70;;;3.40;;
8102;SDS011;4094;49.948;11.574;2023-08-30T13:20:23;4.50;;;3.50;;
8102;SDS011;4094;49.948;11.574;2023-08-30T13:22:53;3.60;;;3.30;;
8102;SDS011;4094;49.948;11.574;2023-08-30T13:25:22;3.90;;;3.60;;
8102;SDS011;4094;49.948;11.574;2023-08-30T13:27:53;4.10;;;3.77;;
8102;SDS011;4094;49.948;11.574;2023-08-30T13:30:23;5.37;;;3.80;;
8102;SDS011;4094;49.948;11.574;2023-08-30T13:32:52;3.73;;;3.43;;
8102;SDS011;4094;49.948;11.574;2023-08-30T13:35:21;3.43;;;3.13;;
8102;SDS011;4094;49.948;11.574;2023-08-30T13:37:51;3.90;;;3.60;;
8102;SDS011;4094;49.948;11.574;2023-08-30T13:40:20;3.30;;;3.10;;
8102;SDS011;4094;49.948;11.574;2023-08-30T13:42:49;3.30;;;3.10;;
8102;SDS011;4094;49.948;11.574;2023-08-30T13:45:19;3.63;;;3.33;;
8102;SDS011;4094;49.948;11.574;2023-08-30T13:47:49;3.90;;;3.60;;
8102;SDS011;4094;49.948;11.574;2023-08-30T13:50:20;3.53;;;3.23;;
8102;SDS011;4094;49.948;11.574;2023-08-30T13:52:49;4.27;;;3.97;;
8102;SDS011;4094;49.948;11.574;2023-08-30T13:55:19;4.20;;;3.90;;
8102;SDS011;4094;49.948;11.574;2023-08-30T13:57:48;4.70;;;4.40;;
8102;SDS011;4094;49.948;11.574;2023-08-30T14:00:18;4.80;;;4.40;;
8102;SDS011;4094;49.948;11.574;2023-08-30T14:02:48;4.80;;;4.50;;
8102;SDS011;4094;49.948;11.574;2023-08-30T14:05:19;5.03;;;4.53;;
8102;SDS011;4094;49.948;11.574;2023-08-30T14:07:48;5.20;;;4.77;;
8102;SDS011;4094;49.948;11.574;2023-08-30T14:10:19;4.77;;;4.37;;
8102;SDS011;4094;49.948;11.574;2023-08-30T14:12:48;4.80;;;4.50;;
8102;SDS011;4094;49.948;11.574;2023-08-30T14:15:17;4.37;;;4.07;;
8102;SDS011;4094;49.948;11.574;2023-08-30T14:17:47;4.60;;;4.20;;
8102;SDS011;4094;49.948;11.574;2023-08-30T14:20:17;4.47;;;4.17;;
8102;SDS011;4094;49.948;11.574;2023-08-30T14:22:46;4.50;;;4.20;;
8102;SDS011;4094;49.948;11.574;2023-08-30T14:25:16;4.10;;;3.80;;
8102;SDS011;4094;49.948;11.574;2023-08-30T14:27:46;4.43;;;4.10;;
8102;SDS011;4094;49.948;11.574;2023-08-30T14:30:15;4.73;;;4.43;;
8102;SDS011;4094;49.948;11.574;2023-08-30T14:32:45;5.00;;;4.60;;
8102;SDS011;4094;49.948;11.574;2023-08-30T14:35:15;4.53;;;4.23;;
8102;SDS011;4094;49.948;11.574;2023-08-30T14:37:44;4.23;;;3.93;;
8102;SDS011;4094;49.948;11.574;2023-08-30T14:40:14;4.63;;;4.23;;
8102;SDS011;4094;49.948;11.574;2023-08-30T14:42:51;5.13;;;4.73;;
8102;SDS011;4094;49.948;11.574;2023-08-30T14:45:23;6.00;;;4.80;;
8102;SDS011;4094;49.948;11.574;2023-08-30T14:47:53;5.17;;;4.70;;
8102;SDS011;4094;49.948;11.574;2023-08-30T14:50:23;5.17;;;4.70;;
8102;SDS011;4094;49.948;11.574;2023-08-30T14:52:53;4.73;;;4.43;;
8102;SDS011;4094;49.948;11.574;2023-08-30T14:55:22;5.40;;;4.90;;
8102;SDS011;4094;49.948;11.574;2023-08-30T14:57:53;5.13;;;4.73;;
8102;SDS011;4094;49.948;11.574;2023-08-30T15:00:23;5.57;;;5.10;;
8102;SDS011;4094;49.948;11.574;2023-08-30T15:02:54;4.67;;;4.27;;
8102;SDS011;4094;49.948;11.574;2023-08-30T15:05:25;5.80;;;5.20;;
8102;SDS011;4094;49.948;11.574;2023-08-30T15:07:55;5.30;;;4.80;;
8102;SDS011;4094;49.948;11.574;2023-08-30T15:10:24;5.43;;;5.03;;
8102;SDS011;4094;49.948;11.574;2023-08-30T15:12:53;5.73;;;5.23;;
8102;SDS011;4094;49.948;11.574;2023-08-30T15:15:22;5.20;;;4.80;;
8102;SDS011;4094;49.948;11.574;2023-08-30T15:17:51;5.57;;;5.17;;
8102;SDS011;4094;49.948;11.574;2023-08-30T15:20:21;5.40;;;5.00;;